Time;durP1;ratioP1;P1;durP2;ratioP2;P2;SDS_P1;SDS_P2;PMS_P1;PMS_P2;Temp;Humidity;BMP_temperature;BMP_pressure;BME280_temperature;BME280_humidity;BME280_pressure;Samples;Min_cycle;Max_cycle;Signal;HPM_P1;HPM_P2
2022/11/12 00:02:11;;;;;;;5.15;2.50;;;;;;;10.57;68.87;101444.34;4376780;32;33173;-87
2022/11/12 00:04:58;;;;;;;0.88;0.88;;;;;;;10.35;69.62;101450.03;4375985;32;33346;-87
2022/11/12 00:07:44;;;;;;;1.62;1.52;;;;;;;10.55;69.52;101443.53;4349329;32;32874;-88
2022/11/12 00:10:32;;;;;;;6.43;1.45;;;;;;;10.92;68.49;101452.53;4378611;32;33509;-87
2022/11/12 00:13:45;;;;;;;2.95;1.73;;;;;;;10.88;68.24;101452.62;4359710;32;32867;-87
2022/11/12 00:16:33;;;;;;;1.95;1.83;;;;;;;10.87;68.29;101454.41;4357451;32;33164;-87
2022/11/12 00:19:19;;;;;;;1.20;1.10;;;;;;;10.75;68.92;101438.75;4371951;32;34168;-87
2022/11/12 00:22:05;;;;;;;1.48;1.30;;;;;;;10.94;68.28;101444.56;4360162;32;33982;-87
2022/11/12 00:24:52;;;;;;;0.22;0.22;;;;;;;11.19;67.49;101431.72;4376907;32;33785;-88
2022/11/12 00:27:39;;;;;;;2.05;1.85;;;;;;;11.06;67.63;101433.75;4374561;32;32325;-88
2022/11/12 00:30:26;;;;;;;1.85;1.65;;;;;;;11.11;67.08;101426.63;4363692;32;33467;-87
2022/11/12 00:33:13;;;;;;;1.10;1.00;;;;;;;10.99;67.62;101422.44;4373383;32;34343;-88
2022/11/12 00:35:59;;;;;;;1.60;1.20;;;;;;;11.41;65.88;101419.81;4377612;32;33419;-88
2022/11/12 00:38:45;;;;;;;5.20;2.28;;;;;;;11.31;65.76;101436.78;4375040;32;33022;-88
2022/11/12 00:41:31;;;;;;;0.50;0.47;;;;;;;11.39;65.09;101437.47;4366292;32;32891;-88
2022/11/12 00:44:18;;;;;;;5.62;1.95;;;;;;;11.28;65.29;101434.19;4371111;32;32560;-88
2022/11/12 00:47:25;;;;;;;1.33;1.23;;;;;;;11.08;65.92;101423.16;4369160;32;34651;-88
2022/11/12 00:50:11;;;;;;;1.80;1.58;;;;;;;11.11;65.99;101415.16;4372401;32;33210;-88
2022/11/12 00:52:58;;;;;;;2.05;1.87;;;;;;;11.08;65.96;101412.59;4377920;32;31659;-88
2022/11/12 00:55:45;;;;;;;1.17;1.15;;;;;;;11.19;65.57;101407.94;4358970;32;33419;-88
2022/11/12 00:58:33;;;;;;;0.90;0.90;;;;;;;10.95;66.10;101404.00;4352178;32;33147;-87
2022/11/12 01:01:20;;;;;;;1.27;1.20;;;;;;;11.01;66.46;101412.72;4358440;32;34662;-87
2022/11/12 01:04:07;;;;;;;4.03;2.35;;;;;;;10.84;66.68;101417.44;4370815;32;33335;-87
2022/11/12 01:06:54;;;;;;;1.85;1.40;;;;;;;10.77;67.01;101421.09;4354571;32;34373;-90
2022/11/12 01:09:40;;;;;;;1.45;1.35;;;;;;;10.81;67.03;101412.22;4374147;32;33786;-89
2022/11/12 01:12:26;;;;;;;2.17;2.00;;;;;;;10.87;67.26;101409.47;4361182;32;32530;-89
2022/11/12 01:15:12;;;;;;;1.77;1.67;;;;;;;10.98;67.31;101399.56;4378435;32;33055;-89
2022/11/12 01:17:58;;;;;;;0.95;0.95;;;;;;;10.70;68.74;101404.50;4375507;32;34142;-89
2022/11/12 01:20:45;;;;;;;2.58;1.23;;;;;;;10.72;69.53;101401.81;4355236;32;32877;-90
2022/11/12 01:23:37;;;;;;;1.02;0.98;;;;;;;10.86;69.39;101399.78;4359607;32;33037;-89
2022/11/12 01:26:23;;;;;;;2.47;1.48;;;;;;;11.24;67.84;101395.50;4351677;32;32116;-89
2022/11/12 01:29:10;;;;;;;1.48;1.40;;;;;;;11.47;67.25;101385.28;4354543;32;32019;-86
2022/11/12 01:31:57;;;;;;;0.82;0.82;;;;;;;11.59;67.07;101376.22;4358676;32;34263;-87
2022/11/12 01:34:43;;;;;;;1.75;1.65;;;;;;;11.43;67.61;101380.09;4366869;32;33277;-87
2022/11/12 01:37:31;;;;;;;1.30;1.00;;;;;;;11.58;66.72;101376.22;4358481;32;34217;-87
2022/11/12 01:40:19;;;;;;;6.72;1.70;;;;;;;11.53;67.17;101385.13;4364644;32;33905;-87
2022/11/12 01:43:13;;;;;;;2.97;2.58;;;;;;;11.46;67.05;101375.63;4369884;32;34743;-86
2022/11/12 01:46:03;;;;;;;3.40;1.48;;;;;;;11.84;65.79;101381.84;4368938;32;33067;-85
2022/11/12 01:48:53;;;;;;;2.00;1.90;;;;;;;11.94;65.45;101388.66;4372441;32;33324;-86
2022/11/12 01:51:43;;;;;;;0.35;0.35;;;;;;;11.67;65.92;101386.63;4377199;32;33634;-86
2022/11/12 01:54:30;;;;;;;2.05;1.95;;;;;;;11.49;66.15;101380.84;4354971;32;33426;-86
2022/11/12 01:57:19;;;;;;;0.75;0.65;;;;;;;11.54;65.91;101384.25;4364946;32;34293;-86
2022/11/12 02:00:10;;;;;;;1.95;1.65;;;;;;;11.42;65.87;101378.38;4358277;32;32804;-85
2022/11/12 02:03:02;;;;;;;1.05;1.02;;;;;;;11.48;65.91;101373.78;4378503;32;33283;-85
2022/11/12 02:05:52;;;;;;;3.47;1.05;;;;;;;11.47;65.78;101381.78;4366850;32;33522;-86
2022/11/12 02:08:40;;;;;;;2.00;1.90;;;;;;;11.36;65.87;101378.50;4355718;32;32854;-86
2022/11/12 02:11:26;;;;;;;1.77;1.33;;;;;;;11.25;66.52;101381.34;4356389;32;32506;-86
2022/11/12 02:14:13;;;;;;;1.27;1.17;;;;;;;11.24;66.52;101384.91;4364366;32;34599;-86
2022/11/12 02:16:59;;;;;;;2.50;2.30;;;;;;;11.42;65.95;101373.94;4378731;32;33674;-86
2022/11/12 02:19:46;;;;;;;1.52;1.42;;;;;;;11.39;66.20;101368.72;4365573;32;33903;-85
2022/11/12 02:22:33;;;;;;;5.45;2.75;;;;;;;11.39;65.97;101367.84;4366673;32;33120;-85
2022/11/12 02:25:22;;;;;;;2.80;2.28;;;;;;;11.38;65.84;101355.53;4355554;32;34238;-85
2022/11/12 02:28:08;;;;;;;1.00;1.00;;;;;;;11.48;65.44;101347.34;4361349;32;34024;-86
2022/11/12 02:30:54;;;;;;;0.62;0.62;;;;;;;11.54;65.25;101351.66;4359698;32;34565;-86
2022/11/12 02:33:40;;;;;;;3.62;2.75;;;;;;;11.58;65.41;101349.78;4379248;32;33526;-85
2022/11/12 02:36:28;;;;;;;1.87;1.75;;;;;;;11.62;65.37;101346.16;4372906;32;34532;-86
2022/11/12 02:39:15;;;;;;;3.87;1.25;;;;;;;11.49;65.31;101349.09;4367650;32;34209;-86
2022/11/12 02:42:02;;;;;;;3.78;2.28;;;;;;;11.36;65.44;101357.34;4359162;32;32479;-87
2022/11/12 02:44:48;;;;;;;0.60;0.60;;;;;;;11.36;65.32;101358.22;4359452;32;32641;-86
2022/11/12 02:47:36;;;;;;;1.45;0.70;;;;;;;11.59;64.56;101354.19;4372366;32;33662;-87
2022/11/12 02:50:22;;;;;;;5.70;2.00;;;;;;;11.24;65.32;101361.12;4377775;32;34314;-86
2022/11/12 02:53:09;;;;;;;2.33;2.12;;;;;;;11.52;64.26;101364.03;4361311;32;33576;-86
2022/11/12 02:55:57;;;;;;;1.60;1.50;;;;;;;11.20;64.91;101362.97;4364393;32;33361;-86
2022/11/12 02:58:43;;;;;;;3.20;1.77;;;;;;;11.17;64.83;101370.09;4378581;32;33251;-86
2022/11/12 03:01:30;;;;;;;1.40;1.12;;;;;;;11.08;64.87;101368.50;4366734;32;33771;-86
2022/11/12 03:04:16;;;;;;;2.08;1.37;;;;;;;11.07;64.79;101364.12;4356787;32;32486;-86
2022/11/12 03:07:03;;;;;;;4.80;3.15;;;;;;;10.90;65.21;101369.75;4364624;32;33363;-86
2022/11/12 03:09:50;;;;;;;3.20;2.75;;;;;;;11.01;64.62;101361.59;4366774;32;32945;-86
2022/11/12 03:12:36;;;;;;;2.28;1.35;;;;;;;10.97;64.56;101360.81;4360080;32;34654;-86
2022/11/12 03:15:23;;;;;;;3.55;2.83;;;;;;;10.95;64.74;101367.88;4370173;32;33394;-86
2022/11/12 03:18:10;;;;;;;2.15;1.10;;;;;;;11.06;64.52;101361.50;4359038;32;32393;-85
2022/11/12 03:20:57;;;;;;;1.87;1.77;;;;;;;11.07;64.23;101352.69;4358199;32;34387;-85
2022/11/12 03:23:44;;;;;;;3.58;1.60;;;;;;;10.80;65.01;101368.19;4365966;32;33778;-86
2022/11/12 03:26:30;;;;;;;1.85;1.75;;;;;;;10.74;65.32;101368.31;4378183;32;33152;-86
2022/11/12 03:29:20;;;;;;;3.70;2.42;;;;;;;10.79;65.37;101357.66;4378654;32;32596;-85
2022/11/12 03:32:07;;;;;;;3.95;2.70;;;;;;;10.93;64.90;101359.13;4375466;32;33255;-84
2022/11/12 03:34:53;;;;;;;2.12;1.92;;;;;;;10.90;64.84;101369.75;4344327;32;33142;-85
2022/11/12 03:37:43;;;;;;;30.62;1.60;;;;;;;10.72;65.06;101364.81;4377814;32;33369;-86
2022/11/12 03:40:31;;;;;;;2.92;2.72;;;;;;;10.61;65.30;101366.81;4352142;32;33607;-85
2022/11/12 03:43:21;;;;;;;5.78;3.03;;;;;;;10.80;65.06;101364.69;4373256;32;33168;-86
2022/11/12 03:46:07;;;;;;;2.30;2.10;;;;;;;10.77;64.85;101378.81;4371379;32;32656;-86
2022/11/12 03:48:54;;;;;;;2.55;1.40;;;;;;;10.70;65.11;101367.50;4368066;32;34560;-86
2022/11/12 03:51:40;;;;;;;1.45;1.35;;;;;;;10.63;65.31;101372.91;4378514;32;32328;-86
2022/11/12 03:54:26;;;;;;;1.35;1.25;;;;;;;10.62;65.30;101384.41;4360173;32;33478;-85
2022/11/12 03:57:13;;;;;;;2.83;2.62;;;;;;;10.61;65.28;101372.97;4371046;32;33712;-85
2022/11/12 03:59:59;;;;;;;1.55;1.23;;;;;;;10.60;64.96;101380.91;4379108;32;33611;-86
2022/11/12 04:02:45;;;;;;;5.10;3.22;;;;;;;10.60;64.84;101391.50;4379780;32;32641;-85
2022/11/12 04:08:38;;;;;;;1.08;1.08;;;;;;;10.55;64.75;101383.66;4360629;32;33771;-84
2022/11/12 04:11:24;;;;;;;4.37;1.08;;;;;;;10.38;65.09;101389.22;4369980;32;34248;-85
2022/11/12 04:14:10;;;;;;;1.02;1.02;;;;;;;10.46;64.78;101389.97;4370548;32;33229;-85
2022/11/12 04:23:06;;;;;;;2.08;1.10;;;;;;;10.42;64.35;101372.44;4361693;32;33861;-84
2022/11/12 04:32:03;;;;;;;2.97;1.90;;;;;;;10.16;64.94;101362.31;4364142;32;34699;-85
2022/11/12 04:34:49;;;;;;;1.02;1.02;;;;;;;10.31;64.51;101358.56;4375776;32;34508;-85
2022/11/12 04:37:45;;;;;;;0.95;0.95;;;;;;;10.05;64.89;101356.31;4377710;32;32737;-85
2022/11/12 04:47:06;;;;;;;0.40;0.40;;;;;;;10.04;64.49;101369.53;4357403;32;33687;-86
2022/11/12 04:49:53;;;;;;;2.55;2.35;;;;;;;9.99;64.34;101370.47;4352944;32;33898;-86
2022/11/12 04:52:39;;;;;;;1.95;1.83;;;;;;;9.95;64.08;101374.06;4344114;32;32906;-87
2022/11/12 04:55:29;;;;;;;1.40;1.30;;;;;;;9.76;64.69;101367.34;4369975;32;33035;-86
2022/11/12 04:58:16;;;;;;;2.28;1.55;;;;;;;9.84;64.24;101368.09;4358472;32;32543;-87
2022/11/12 05:01:04;;;;;;;1.73;1.62;;;;;;;9.85;64.01;101368.97;4377622;32;33130;-87
2022/11/12 05:03:50;;;;;;;2.85;2.58;;;;;;;9.84;63.91;101362.81;4365425;32;34382;-87
2022/11/12 05:06:51;;;;;;;3.22;3.03;;;;;;;9.72;64.26;101366.50;4359474;32;33827;-87
2022/11/12 05:09:39;;;;;;;;;;;;;;;9.61;64.44;101378.12;4365336;32;34446;-87
2022/11/12 05:12:27;;;;;;;0.30;0.30;;;;;;;9.59;64.17;101380.78;4372615;32;32243;-88
2022/11/12 05:15:14;;;;;;;2.85;1.83;;;;;;;9.52;64.49;101372.97;4357331;32;32360;-87
2022/11/12 05:18:01;;;;;;;0.98;0.98;;;;;;;9.52;64.21;101381.75;4376164;32;32866;-87
2022/11/12 05:20:50;;;;;;;0.85;0.85;;;;;;;9.51;64.18;101384.44;4371284;32;33817;-87
2022/11/12 05:23:38;;;;;;;3.75;2.30;;;;;;;9.56;63.70;101385.22;4366689;32;34089;-87
2022/11/12 05:26:26;;;;;;;1.70;1.60;;;;;;;9.30;64.29;101383.81;4377276;32;34595;-87
2022/11/12 05:29:17;;;;;;;3.62;2.75;;;;;;;9.48;63.77;101386.19;4371858;32;33391;-87
2022/11/12 05:32:06;;;;;;;2.33;2.17;;;;;;;9.28;64.17;101388.25;4366500;32;34550;-87
2022/11/12 05:34:53;;;;;;;1.75;1.65;;;;;;;9.31;63.94;101393.47;4361772;32;33809;-87
2022/11/12 05:37:39;;;;;;;4.15;2.72;;;;;;;9.38;63.72;101397.75;4373772;32;32503;-87
2022/11/12 05:40:25;;;;;;;2.22;1.80;;;;;;;9.30;63.64;101388.22;4352789;32;33584;-87
2022/11/12 05:43:12;;;;;;;1.33;1.30;;;;;;;9.33;63.42;101396.97;4370763;32;32612;-87
2022/11/12 05:45:59;;;;;;;1.65;1.55;;;;;;;9.29;63.59;101382.06;4358462;32;32328;-87
2022/11/12 05:48:47;;;;;;;2.67;1.52;;;;;;;9.00;64.49;101394.75;4339011;32;33424;-87
2022/11/12 05:51:35;;;;;;;0.98;0.90;;;;;;;9.16;63.98;101385.75;4370641;32;33890;-86
2022/11/12 05:54:23;;;;;;;2.30;2.15;;;;;;;9.14;63.89;101384.91;4376063;32;32812;-86
2022/11/12 05:57:11;;;;;;;0.68;0.68;;;;;;;9.20;63.64;101400.63;4352744;32;33234;-86
2022/11/12 06:00:05;;;;;;;0.77;0.77;;;;;;;9.21;63.01;101392.72;4372400;32;34477;-86
2022/11/12 06:02:40;;;;;;;2.30;2.10;;;;;;;8.88;64.60;101398.41;4370872;32;33218;-86
2022/11/12 06:05:32;;;;;;;1.10;1.10;;;;;;;9.00;64.23;101407.91;4368675;32;34106;-87
2022/11/12 06:08:19;;;;;;;1.62;0.77;;;;;;;8.85;64.76;101409.84;4351238;32;31962;-87
2022/11/12 06:11:09;;;;;;;2.00;1.55;;;;;;;8.93;64.57;101408.00;4373731;32;33476;-87
2022/11/12 06:13:57;;;;;;;1.10;1.08;;;;;;;9.15;63.90;101413.00;4360755;32;32988;-87
2022/11/12 06:16:46;;;;;;;2.83;2.55;;;;;;;8.88;64.72;101414.22;4374733;32;33963;-86
2022/11/12 06:19:36;;;;;;;1.37;1.37;;;;;;;9.01;64.51;101418.44;4354018;32;33609;-85
2022/11/12 06:22:22;;;;;;;8.27;2.87;;;;;;;9.09;64.31;101423.63;4376291;32;33277;-85
2022/11/12 06:25:09;;;;;;;1.92;1.83;;;;;;;9.00;64.80;101419.31;4374848;32;33498;-85
2022/11/12 06:27:57;;;;;;;1.37;1.35;;;;;;;9.02;64.94;101430.75;4372472;32;33157;-85
2022/11/12 06:30:47;;;;;;;2.30;1.15;;;;;;;8.98;65.11;101443.06;4370250;32;33359;-87
2022/11/12 06:33:40;;;;;;;;;;;;;;;9.02;65.54;101429.84;4362517;32;34644;-86
2022/11/12 06:36:31;;;;;;;2.42;2.30;;;;;;;9.10;65.12;101447.31;4373802;32;33533;-86
2022/11/12 06:39:19;;;;;;;4.30;3.90;;;;;;;9.06;65.33;101448.22;4370979;32;33784;-86
2022/11/12 06:42:07;;;;;;;1.90;1.80;;;;;;;9.05;65.47;101443.84;4364427;32;33651;-86
2022/11/12 06:44:54;;;;;;;1.95;1.80;;;;;;;9.13;65.16;101451.69;4377958;32;33194;-86
2022/11/12 06:47:42;;;;;;;4.43;3.85;;;;;;;9.09;65.90;101464.00;4370273;32;34249;-86
2022/11/12 06:50:30;;;;;;;1.27;1.17;;;;;;;9.10;65.76;101464.88;4350612;32;34952;-85
2022/11/12 06:53:18;;;;;;;4.82;3.65;;;;;;;9.19;65.52;101462.16;4363546;32;33133;-86
2022/11/12 06:56:06;;;;;;;2.67;2.47;;;;;;;9.18;65.71;101452.50;4354757;32;33747;-85
2022/11/12 06:59:04;;;;;;;3.60;3.40;;;;;;;9.15;65.75;101455.16;4371406;32;34218;-85
2022/11/12 07:01:54;;;;;;;2.05;1.95;;;;;;;9.34;65.22;101456.69;4372429;32;33118;-86
2022/11/12 07:04:42;;;;;;;2.80;2.60;;;;;;;9.20;65.74;101454.22;4339630;32;33897;-86
2022/11/12 07:07:33;;;;;;;1.45;1.35;;;;;;;9.27;65.72;101457.66;4371065;32;31316;-86
2022/11/12 07:10:20;;;;;;;3.03;2.83;;;;;;;9.38;65.63;101462.81;4359091;32;33585;-85
2022/11/12 07:13:11;;;;;;;2.22;2.12;;;;;;;9.31;65.94;101454.13;4361691;32;32976;-85
2022/11/12 07:16:03;;;;;;;1.92;1.83;;;;;;;9.50;65.65;101462.66;4371450;32;34038;-85
2022/11/12 07:18:55;;;;;;;2.97;2.78;;;;;;;9.80;64.58;101471.06;4360080;32;32966;-84
2022/11/12 07:21:43;;;;;;;2.92;2.67;;;;;;;9.57;65.82;101474.00;4359590;32;33385;-85
2022/11/12 07:24:32;;;;;;;2.83;2.62;;;;;;;9.48;66.43;101475.84;4370858;32;33723;-86
2022/11/12 07:27:20;;;;;;;1.65;1.55;;;;;;;9.98;65.03;101484.00;4357063;32;34069;-85
2022/11/12 07:30:12;;;;;;;2.92;2.72;;;;;;;9.65;66.42;101472.12;4368439;32;32400;-85
2022/11/12 07:33:00;;;;;;;2.87;2.75;;;;;;;9.86;66.04;101466.56;4380303;32;32948;-86
2022/11/12 07:35:47;;;;;;;10.88;4.75;;;;;;;10.08;66.02;101474.16;4363233;32;33944;-85
2022/11/12 07:41:31;;;;;;;2.70;2.53;;;;;;;10.15;65.74;101466.12;4353157;32;33764;-85
2022/11/12 07:44:18;;;;;;;6.93;4.47;;;;;;;10.33;66.10;101467.63;4372512;32;32782;-85
2022/11/12 07:47:07;;;;;;;4.35;3.95;;;;;;;10.52;65.63;101461.16;4354419;32;33824;-90
2022/11/12 07:49:54;;;;;;;5.50;3.97;;;;;;;10.50;66.18;101455.03;4372183;32;33665;-88
2022/11/12 07:55:36;;;;;;;3.65;2.70;;;;;;;10.50;67.22;101457.69;4366575;32;33979;-89
2022/11/12 08:01:24;;;;;;;5.28;4.80;;;;;;;10.87;67.51;101459.69;4359917;32;31845;-88
2022/11/12 08:04:21;;;;;;;5.10;4.70;;;;;;;10.86;68.04;101468.47;4361578;32;33217;-89
2022/11/12 08:07:10;;;;;;;3.65;3.37;;;;;;;11.24;67.80;101469.53;4363206;32;33353;-86
2022/11/12 08:10:03;;;;;;;1.67;1.58;;;;;;;11.26;68.50;101470.38;4368823;32;34123;-86
2022/11/12 08:12:59;;;;;;;3.22;3.03;;;;;;;11.49;68.02;101473.44;4357411;32;33520;-86
2022/11/12 08:15:47;;;;;;;9.05;3.03;;;;;;;11.87;66.79;101482.34;4370520;32;34750;-86
2022/11/12 08:18:41;;;;;;;4.20;3.80;;;;;;;11.75;66.65;101478.16;4341415;32;34888;-85
2022/11/12 08:21:33;;;;;;;6.75;3.30;;;;;;;12.21;65.20;101487.75;4358051;32;33086;-86
2022/11/12 08:24:20;;;;;;;2.62;2.42;;;;;;;12.14;65.54;101485.25;4355096;32;32537;-87
2022/11/12 08:33:06;;;;;;;6.87;3.03;;;;;;;12.33;66.57;101485.69;4341875;32;31816;-86
2022/11/12 08:36:04;;;;;;;8.50;4.68;;;;;;;12.45;66.51;101485.41;4342498;32;31719;-87
2022/11/12 08:38:53;;;;;;;5.60;2.90;;;;;;;12.37;66.75;101472.34;4331885;32;34095;-86
2022/11/12 08:41:41;;;;;;;3.35;1.62;;;;;;;12.57;66.83;101474.50;4341807;32;33552;-86
2022/11/12 08:44:29;;;;;;;3.45;3.22;;;;;;;13.02;65.25;101488.34;4328772;32;32622;-86
2022/11/12 08:47:17;;;;;;;2.75;2.55;;;;;;;12.91;65.32;101484.22;4332099;32;35400;-86
2022/11/12 08:50:05;;;;;;;9.88;4.30;;;;;;;12.88;65.26;101485.19;4331507;32;33971;-85
2022/11/12 08:52:51;;;;;;;3.97;2.72;;;;;;;12.85;65.60;101487.91;4331547;33;32986;-86
2022/11/12 08:55:40;;;;;;;2.62;2.42;;;;;;;12.70;66.43;101490.97;4342830;32;35714;-86
2022/11/12 09:01:27;;;;;;;8.30;3.40;;;;;;;12.69;66.02;101499.84;4336332;32;32885;-86
2022/11/12 09:04:29;;;;;;;2.05;1.95;;;;;;;13.14;64.05;101502.16;4345495;32;32762;-87
2022/11/12 09:07:17;;;;;;;3.08;2.87;;;;;;;13.04;64.21;101506.84;4327743;32;32593;-89
2022/11/12 09:10:31;;;;;;;7.20;4.50;;;;;;;13.04;64.53;101518.31;4346179;32;33355;-92
2022/11/12 09:13:17;;;;;;;7.22;2.78;;;;;;;12.82;65.70;101511.87;4363498;32;32143;-93
2022/11/12 09:16:05;;;;;;;9.45;1.95;;;;;;;13.15;64.34;101517.16;4378580;32;33302;-92
2022/11/12 09:19:05;;;;;;;3.75;2.62;;;;;;;13.29;63.24;101523.00;4363507;32;33637;-90
2022/11/12 09:21:53;;;;;;;2.83;1.55;;;;;;;12.95;63.66;101523.88;4348136;32;32028;-94
2022/11/12 09:24:39;;;;;;;3.80;3.50;;;;;;;13.00;63.53;101524.63;4344865;32;34329;-93
2022/11/12 09:27:26;;;;;;;4.50;3.47;;;;;;;13.14;62.98;101528.69;4370229;32;32345;-94
2022/11/12 09:30:14;;;;;;;4.25;3.10;;;;;;;12.90;63.94;101533.72;4365260;32;33164;-92
2022/11/12 09:32:58;;;;;;;3.42;2.22;;;;;;;12.75;64.56;101539.44;4362586;32;31918;-93
2022/11/12 09:39:44;;;;;;;3.67;3.00;;;;;;;13.01;64.01;101542.28;4349651;32;33150;-90
2022/11/12 09:47:35;;;;;;;4.07;2.33;;;;;;;12.90;64.22;101546.97;4347603;32;31911;-88
2022/11/12 09:50:33;;;;;;;4.87;4.40;;;;;;;13.07;64.16;101542.13;4322434;33;33259;-95
2022/11/12 09:53:41;;;;;;;3.90;3.60;;;;;;;13.00;64.12;101543.19;4360488;32;34145;-95
2022/11/12 09:56:25;;;;;;;3.03;2.80;;;;;;;12.74;65.18;101546.50;4328717;33;32298;-94
2022/11/12 09:59:11;;;;;;;9.63;4.28;;;;;;;13.01;65.01;101546.72;4350184;32;32167;-95
2022/11/12 10:02:18;;;;;;;2.97;2.70;;;;;;;12.88;65.73;101547.94;4343439;32;33050;-93
2022/11/12 10:05:33;;;;;;;5.90;3.30;;;;;;;13.33;63.34;101552.06;4373647;32;34041;-87
2022/11/12 10:08:44;;;;;;;2.22;2.10;;;;;;;13.19;63.46;101554.19;4370944;32;33669;-87
2022/11/12 10:16:41;;;;;;;5.28;4.68;;;;;;;13.30;63.34;101553.94;4386205;32;34777;-87
2022/11/12 10:18:42;;;;;;;2.83;2.62;;;;;;;13.74;63.14;101551.81;4384864;32;33788;-87
2022/11/12 10:21:49;;;;;;;1.75;1.62;;;;;;;13.88;61.91;101546.97;4375668;32;32197;-87
2022/11/12 10:24:42;;;;;;;4.78;3.72;;;;;;;13.84;62.18;101543.53;4364901;32;33257;-88
2022/11/12 10:27:39;;;;;;;3.92;3.17;;;;;;;14.36;60.35;101546.41;4372540;32;32641;-88
2022/11/12 10:30:26;;;;;;;6.82;3.80;;;;;;;14.54;60.02;101543.19;4364578;32;33990;-88
2022/11/12 10:33:23;;;;;;;9.23;4.97;;;;;;;13.80;61.88;101539.22;4385826;32;33497;-88
2022/11/12 10:36:29;;;;;;;4.40;4.10;;;;;;;14.38;60.81;101539.22;4357768;32;32731;-87
2022/11/12 10:39:33;;;;;;;2.40;2.25;;;;;;;15.15;57.85;101536.75;4362672;32;33460;-88
2022/11/12 10:42:23;;;;;;;3.53;2.97;;;;;;;15.06;58.17;101538.78;4372941;32;33438;-88
2022/11/12 10:45:21;;;;;;;6.05;4.10;;;;;;;15.42;57.02;101529.53;4358795;32;32464;-87
2022/11/12 10:48:33;;;;;;;3.95;3.25;;;;;;;15.46;56.95;101521.37;4362443;32;32294;-87
2022/11/12 10:51:27;;;;;;;3.97;3.28;;;;;;;15.22;57.68;101516.94;4351948;32;32520;-87
2022/11/12 10:57:43;;;;;;;5.78;3.67;;;;;;;16.09;55.77;101506.59;4376055;32;32393;-88
2022/11/12 11:00:30;;;;;;;17.45;4.22;;;;;;;15.87;55.50;101505.69;4364274;32;32931;-87
2022/11/12 11:03:23;;;;;;;3.80;3.50;;;;;;;15.57;56.48;101508.56;4357447;32;33151;-89
2022/11/12 11:06:16;;;;;;;8.90;2.70;;;;;;;15.94;54.91;101512.50;4377824;32;33437;-87
2022/11/12 11:09:13;;;;;;;2.97;2.75;;;;;;;15.60;55.72;101508.44;4371957;32;33936;-88
2022/11/12 11:12:03;;;;;;;2.50;2.37;;;;;;;15.22;56.97;101511.63;4365026;32;32234;-88
2022/11/12 11:15:11;;;;;;;3.83;3.53;;;;;;;15.41;57.11;101506.50;4351604;32;32742;-88
2022/11/12 11:18:01;;;;;;;3.35;2.05;;;;;;;15.01;57.65;101507.94;4372433;32;34179;-88
2022/11/12 11:20:58;;;;;;;5.03;4.47;;;;;;;16.01;54.76;101498.03;4369587;32;32360;-88
2022/11/12 11:26:56;;;;;;;1.80;1.58;;;;;;;15.92;55.32;101486.88;4377613;32;33121;-88
2022/11/12 11:29:58;;;;;;;5.20;3.67;;;;;;;16.25;54.36;101492.66;4349972;32;33173;-88
2022/11/12 11:32:53;;;;;;;2.72;1.42;;;;;;;16.50;54.05;101485.38;4373343;32;34281;-88
2022/11/12 11:36:14;;;;;;;4.97;2.40;;;;;;;16.19;55.18;101484.87;4372171;32;34160;-88
2022/11/12 11:39:29;;;;;;;5.82;2.72;;;;;;;16.74;53.89;101486.19;4369841;32;33929;-88
2022/11/12 11:42:43;;;;;;;3.60;2.65;;;;;;;16.43;54.22;101483.91;4377665;32;33902;-88
2022/11/12 11:49:04;;;;;;;2.80;2.60;;;;;;;16.36;54.57;101490.41;4369956;32;32818;-88
2022/11/12 11:52:04;;;;;;;4.03;3.20;;;;;;;17.01;53.09;101484.13;4377927;32;33705;-88
2022/11/12 11:55:21;;;;;;;5.28;4.57;;;;;;;16.94;53.04;101485.31;4371222;32;33415;-88
2022/11/12 11:58:20;;;;;;;3.00;2.00;;;;;;;16.70;53.32;101473.00;4364868;32;32580;-88
2022/11/12 12:01:18;;;;;;;8.43;4.65;;;;;;;16.90;54.07;101473.03;4359867;32;33892;-88
2022/11/12 12:04:13;;;;;;;2.42;2.33;;;;;;;17.15;53.81;101470.19;4377513;32;34477;-89
2022/11/12 12:07:23;;;;;;;6.18;2.95;;;;;;;16.93;52.35;101470.25;4373333;32;35755;-88
2022/11/12 12:13:27;;;;;;;4.70;2.33;;;;;;;17.01;53.99;101476.12;4369338;32;32759;-88
2022/11/12 12:16:23;;;;;;;4.30;2.92;;;;;;;17.13;52.10;101461.38;4379746;32;33119;-88
2022/11/12 12:19:44;;;;;;;3.87;2.62;;;;;;;17.23;51.96;101460.00;4365922;32;34179;-88
2022/11/12 12:22:38;;;;;;;3.87;2.55;;;;;;;17.58;50.31;101450.41;4379678;32;32903;-88
2022/11/12 12:25:36;;;;;;;5.20;3.17;;;;;;;17.71;50.17;101440.03;4382827;32;35059;-88
2022/11/12 12:28:21;;;;;;;2.90;2.67;;;;;;;17.32;51.37;101442.72;4361112;32;34162;-88
2022/11/12 12:31:17;;;;;;;3.70;2.95;;;;;;;16.64;53.96;101443.00;4389038;32;33013;-88
2022/11/12 12:37:50;;;;;;;4.70;3.87;;;;;;;17.06;53.00;101442.09;4364463;32;33334;-88
2022/11/12 12:45:39;;;;;;;3.12;2.80;;;;;;;17.10;52.35;101443.69;4349413;32;32932;-88
2022/11/12 12:48:39;;;;;;;3.58;3.15;;;;;;;16.51;54.08;101449.78;4373808;32;32409;-88
2022/11/12 12:51:30;;;;;;;2.28;2.08;;;;;;;16.65;54.83;101446.53;4359100;32;32609;-88
2022/11/12 12:54:37;;;;;;;3.20;2.92;;;;;;;16.60;55.17;101444.06;4364149;32;32615;-88
2022/11/12 12:57:44;;;;;;;3.03;2.42;;;;;;;16.72;53.54;101437.37;4357241;32;33461;-87
2022/11/12 13:00:39;;;;;;;4.37;3.30;;;;;;;16.81;53.25;101441.47;4363654;32;33273;-87
2022/11/12 13:03:45;;;;;;;4.70;4.30;;;;;;;16.03;54.59;101448.22;4363809;32;32675;-88
2022/11/12 13:06:49;;;;;;;11.98;3.55;;;;;;;16.36;54.28;101439.75;4363914;32;35574;-88
2022/11/12 13:09:39;;;;;;;5.40;3.72;;;;;;;16.55;53.73;101446.06;4367468;32;33376;-87
2022/11/12 13:13:02;;;;;;;3.60;3.12;;;;;;;16.74;53.83;101438.16;4353618;32;32049;-88
2022/11/12 13:15:49;;;;;;;9.15;3.42;;;;;;;16.71;53.71;101443.63;4352639;32;32061;-87
2022/11/12 13:18:38;;;;;;;2.65;2.45;;;;;;;16.82;53.70;101438.72;4375486;32;33954;-88
2022/11/12 13:21:25;;;;;;;3.33;2.83;;;;;;;17.19;52.45;101428.22;4366967;32;33321;-88
2022/11/12 13:24:12;;;;;;;2.97;2.72;;;;;;;16.83;53.75;101428.91;4363501;32;32435;-88
2022/11/12 13:29:54;;;;;;;3.67;3.37;;;;;;;16.57;55.21;101436.22;4372955;32;33383;-87
2022/11/12 13:32:58;;;;;;;4.65;3.40;;;;;;;16.74;53.55;101431.97;4356405;32;34821;-88
2022/11/12 13:35:46;;;;;;;4.65;4.25;;;;;;;16.89;53.29;101429.50;4368207;32;33408;-87
2022/11/12 13:38:42;;;;;;;3.95;3.12;;;;;;;16.99;53.12;101429.94;4363315;32;32011;-87
2022/11/12 13:44:50;;;;;;;3.17;2.97;;;;;;;17.01;53.09;101438.78;4367023;32;34779;-87
2022/11/12 13:47:43;;;;;;;3.20;2.92;;;;;;;17.03;53.30;101438.69;4365245;32;32708;-87
2022/11/12 13:50:20;;;;;;;2.45;2.25;;;;;;;16.83;53.48;101442.25;4380856;32;32725;-88
2022/11/12 13:53:09;;;;;;;4.78;3.35;;;;;;;16.89;53.64;101433.97;4365256;32;33130;-89
2022/11/12 13:56:06;;;;;;;2.67;1.90;;;;;;;16.83;52.24;101439.56;4369740;32;34771;-89
2022/11/12 13:59:18;;;;;;;4.37;2.28;;;;;;;16.91;52.27;101441.91;4375310;32;34904;-88
2022/11/12 14:02:26;;;;;;;2.05;1.85;;;;;;;17.00;51.89;101436.19;4367270;32;32956;-88
2022/11/12 14:05:17;;;;;;;1.80;1.70;;;;;;;16.62;52.91;101441.34;4360437;32;33100;-88
2022/11/12 14:08:40;;;;;;;3.78;2.70;;;;;;;16.56;53.31;101446.91;4379614;32;32699;-89
2022/11/12 14:15:04;;;;;;;2.47;1.55;;;;;;;16.81;52.67;101446.78;4366220;32;33247;-88
2022/11/12 14:17:47;;;;;;;2.35;1.60;;;;;;;16.91;52.27;101442.78;4330551;32;354714;-88
2022/11/12 14:20:39;;;;;;;1.33;1.25;;;;;;;16.98;52.39;101438.03;4363841;32;35692;-88
2022/11/12 14:23:27;;;;;;;3.50;2.42;;;;;;;16.46;54.51;101434.91;4358610;32;33905;-88
2022/11/12 14:26:36;;;;;;;2.50;1.17;;;;;;;16.35;54.22;101433.56;4359178;32;32746;-88
2022/11/12 14:29:25;;;;;;;3.03;2.75;;;;;;;16.50;53.76;101439.19;4366624;32;33832;-88
2022/11/12 14:32:24;;;;;;;5.57;2.35;;;;;;;16.11;54.86;101443.44;4369737;32;33766;-88
2022/11/12 14:35:30;;;;;;;1.67;1.58;;;;;;;16.01;54.80;101434.09;4357941;32;33676;-87
2022/11/12 14:38:25;;;;;;;4.22;2.22;;;;;;;16.28;54.61;101433.87;4370061;32;32705;-88
2022/11/12 14:41:19;;;;;;;3.53;1.67;;;;;;;15.92;55.43;101438.91;4370751;32;32691;-88
2022/11/12 14:44:16;;;;;;;9.95;2.78;;;;;;;16.22;54.38;101431.47;4364566;32;34422;-88